Time;durP1;ratioP1;P1;durP2;ratioP2;P2;SDS_P1;SDS_P2;PMS_P1;PMS_P2;Temp;Humidity;BMP_temperature;BMP_pressure;BME280_temperature;BME280_humidity;BME280_pressure;Samples;Min_cycle;Max_cycle;Signal;HPM_P1;HPM_P2
2023/10/16 00:00:30;;;;;;;11.50;4.43;;;5.00;99.90;;;;;;5052878;28;20045;-58
2023/10/16 00:02:59;;;;;;;7.07;4.13;;;5.00;99.90;;;;;;5054602;28;21605;-61
2023/10/16 00:05:45;;;;;;;9.10;4.40;;;4.90;99.90;;;;;;5051329;28;20017;-58
2023/10/16 00:08:12;;;;;;;8.27;3.75;;;4.80;99.90;;;;;;5051269;28;20041;-57
2023/10/16 00:10:38;;;;;;;8.88;3.92;;;4.80;99.90;;;;;;5051286;28;20033;-56
2023/10/16 00:13:04;;;;;;;7.32;4.57;;;4.90;99.90;;;;;;5058234;28;20031;-59
2023/10/16 00:15:39;;;;;;;9.95;4.53;;;4.80;99.90;;;;;;5052273;28;20398;-58
2023/10/16 00:18:13;;;;;;;9.70;3.95;;;4.70;99.90;;;;;;5052190;28;20056;-60
2023/10/16 00:20:40;;;;;;;8.68;4.45;;;4.80;99.90;;;;;;5054667;28;20103;-57
2023/10/16 00:23:10;;;;;;;11.38;4.15;;;4.80;99.90;;;;;;5060393;28;20019;-57
2023/10/16 00:25:38;;;;;;;9.95;4.43;;;4.70;99.90;;;;;;5065582;28;20540;-59
2023/10/16 00:28:05;;;;;;;11.30;5.05;;;4.70;99.90;;;;;;5064975;28;20482;-58
2023/10/16 00:30:31;;;;;;;10.75;4.88;;;4.60;99.90;;;;;;5056480;28;20510;-58
2023/10/16 00:32:58;;;;;;;7.80;5.07;;;4.70;99.90;;;;;;5062675;28;20040;-59
2023/10/16 00:35:24;;;;;;;12.30;5.07;;;4.60;99.90;;;;;;5064295;28;20564;-58
2023/10/16 00:37:50;;;;;;;9.85;5.32;;;4.60;99.90;;;;;;5062774;28;20032;-60
2023/10/16 00:40:29;;;;;;;11.90;5.00;;;4.60;99.90;;;;;;5064321;28;20040;-60
2023/10/16 00:42:55;;;;;;;17.25;5.97;;;4.50;99.90;;;;;;5065432;28;20024;-59
2023/10/16 00:45:20;;;;;;;13.55;5.88;;;4.60;99.90;;;;;;5054757;28;20429;-61
2023/10/16 00:47:47;;;;;;;9.57;5.20;;;4.50;99.90;;;;;;5064626;28;20074;-61
2023/10/16 00:50:14;;;;;;;9.30;5.57;;;4.50;99.90;;;;;;5059993;28;20554;-59
2023/10/16 00:52:42;;;;;;;12.15;5.97;;;4.50;99.90;;;;;;5061238;28;20067;-59
2023/10/16 00:55:11;;;;;;;12.82;5.45;;;4.40;99.90;;;;;;5057441;28;20037;-58
2023/10/16 00:57:42;;;;;;;9.98;5.00;;;4.50;99.90;;;;;;5045497;28;20025;-59
2023/10/16 01:00:12;;;;;;;8.95;4.82;;;4.40;99.90;;;;;;5049855;28;20024;-60
2023/10/16 01:02:40;;;;;;;16.58;5.80;;;4.40;99.90;;;;;;5048650;28;20020;-59
2023/10/16 01:05:07;;;;;;;11.73;5.55;;;4.30;99.90;;;;;;5050515;28;20047;-60
2023/10/16 01:07:36;;;;;;;12.23;6.18;;;4.30;99.90;;;;;;5050007;28;20106;-61
2023/10/16 01:10:10;;;;;;;10.43;5.70;;;4.30;99.90;;;;;;5049968;28;20012;-60
2023/10/16 01:12:36;;;;;;;;;;;4.20;99.90;;;;;;5067716;28;20152;-62
2023/10/16 01:15:04;;;;;;;8.82;5.60;;;4.20;99.90;;;;;;5051750;28;19974;-61
2023/10/16 01:17:30;;;;;;;9.98;5.82;;;4.00;99.90;;;;;;5054742;28;20115;-60
2023/10/16 01:19:56;;;;;;;14.63;6.22;;;4.00;99.90;;;;;;5050950;28;20446;-59
2023/10/16 01:22:22;;;;;;;13.02;6.10;;;4.00;99.90;;;;;;5052266;28;20038;-56
2023/10/16 01:24:48;;;;;;;13.13;5.28;;;4.00;99.90;;;;;;5063818;28;20025;-61
2023/10/16 01:27:26;;;;;;;15.15;5.82;;;4.00;99.90;;;;;;5060045;28;20393;-59
2023/10/16 01:29:52;;;;;;;14.30;6.47;;;4.00;99.90;;;;;;5059814;28;20021;-59
2023/10/16 01:32:18;;;;;;;14.15;6.00;;;4.00;99.90;;;;;;5055039;28;20012;-59
2023/10/16 01:34:46;;;;;;;13.55;6.10;;;4.10;99.90;;;;;;5053868;28;20094;-60
2023/10/16 01:37:17;;;;;;;12.98;5.93;;;4.10;99.90;;;;;;5067819;28;20070;-61
2023/10/16 01:39:49;;;;;;;9.68;5.65;;;4.00;99.90;;;;;;5062998;28;20032;-61
2023/10/16 01:42:18;;;;;;;12.98;6.30;;;4.00;99.90;;;;;;5053033;28;20656;-61
2023/10/16 01:44:44;;;;;;;12.32;5.60;;;4.00;99.90;;;;;;5064367;28;20075;-60
2023/10/16 01:47:15;;;;;;;9.20;5.75;;;4.00;99.90;;;;;;5054902;28;20032;-61
2023/10/16 01:49:45;;;;;;;17.42;5.93;;;3.90;99.90;;;;;;5061042;28;20021;-59
2023/10/16 01:52:11;;;;;;;11.90;6.07;;;3.90;99.90;;;;;;5056808;28;20009;-54
2023/10/16 01:54:38;;;;;;;15.27;6.35;;;3.90;99.90;;;;;;5058293;28;20070;-59
2023/10/16 01:57:10;;;;;;;8.90;6.07;;;3.90;99.90;;;;;;5056256;28;20367;-61
2023/10/16 01:59:47;;;;;;;13.13;6.07;;;3.80;99.90;;;;;;5055981;28;20063;-59
2023/10/16 02:02:13;;;;;;;11.13;6.90;;;3.80;99.90;;;;;;5051632;28;20020;-59
2023/10/16 02:04:40;;;;;;;10.02;5.40;;;3.80;99.90;;;;;;5058570;28;20078;-57
2023/10/16 02:07:09;;;;;;;11.90;6.57;;;3.80;99.90;;;;;;5068733;28;20020;-55
2023/10/16 02:09:38;;;;;;;17.83;5.45;;;3.80;99.90;;;;;;5058261;28;20105;-58
2023/10/16 02:12:16;;;;;;;12.93;5.78;;;3.70;99.90;;;;;;5057934;28;20027;-59
2023/10/16 02:14:42;;;;;;;13.73;6.32;;;3.60;99.90;;;;;;5053651;28;20040;-58
2023/10/16 02:17:19;;;;;;;10.82;6.50;;;3.60;99.90;;;;;;5057080;28;20013;-56
2023/10/16 02:19:44;;;;;;;13.20;6.00;;;3.70;99.90;;;;;;5058599;28;20029;-57
2023/10/16 02:22:16;;;;;;;10.00;5.93;;;3.70;99.90;;;;;;5068403;28;20024;-57
2023/10/16 02:24:41;;;;;;;14.13;6.47;;;3.60;99.90;;;;;;5060558;28;20017;-58
2023/10/16 02:27:12;;;;;;;13.60;6.18;;;3.60;99.90;;;;;;5062754;28;20023;-57
2023/10/16 02:29:52;;;;;;;12.13;6.00;;;3.70;99.90;;;;;;5060089;28;20471;-58
2023/10/16 02:32:17;;;;;;;10.38;5.47;;;3.60;99.90;;;;;;5065302;28;20013;-58
2023/10/16 02:34:43;;;;;;;14.20;6.70;;;3.50;99.90;;;;;;5062505;28;20033;-55
2023/10/16 02:37:14;;;;;;;14.43;6.13;;;3.60;99.90;;;;;;5066799;28;20078;-58
2023/10/16 02:39:41;;;;;;;11.73;6.15;;;3.60;99.90;;;;;;5063480;28;20104;-58
2023/10/16 02:42:12;;;;;;;12.82;6.47;;;3.50;99.90;;;;;;5068960;28;20081;-57
2023/10/16 02:44:45;;;;;;;15.13;6.22;;;3.50;99.90;;;;;;5060483;28;20424;-60
2023/10/16 02:47:25;;;;;;;10.20;6.07;;;3.50;99.90;;;;;;5062419;28;20035;-61
2023/10/16 02:49:51;;;;;;;12.75;6.15;;;3.60;99.90;;;;;;5058950;28;20031;-59
2023/10/16 02:52:17;;;;;;;13.63;6.03;;;3.60;99.90;;;;;;5061192;28;20025;-58
2023/10/16 02:54:45;;;;;;;11.68;5.90;;;3.60;99.90;;;;;;5052243;28;20120;-61
2023/10/16 02:57:11;;;;;;;11.30;5.82;;;3.60;99.90;;;;;;5050815;28;20016;-58
2023/10/16 02:59:39;;;;;;;8.77;5.03;;;3.60;99.90;;;;;;5050581;28;20033;-59
2023/10/16 03:02:13;;;;;;;11.10;5.88;;;3.70;99.90;;;;;;5050987;28;20065;-57
2023/10/16 03:04:40;;;;;;;11.18;5.75;;;3.70;99.90;;;;;;5050525;28;20058;-59
2023/10/16 03:07:07;;;;;;;13.00;6.20;;;3.70;99.90;;;;;;5054333;28;20033;-58
2023/10/16 03:09:32;;;;;;;11.60;6.40;;;3.70;99.90;;;;;;5052861;28;20025;-60
2023/10/16 03:12:04;;;;;;;11.63;5.95;;;3.70;99.90;;;;;;5061247;28;20043;-61
2023/10/16 03:14:36;;;;;;;11.63;5.25;;;3.70;99.90;;;;;;5052932;28;20383;-61
2023/10/16 03:17:08;;;;;;;7.90;4.93;;;3.60;99.90;;;;;;5054492;28;20028;-61
2023/10/16 03:19:34;;;;;;;9.07;5.32;;;3.60;99.90;;;;;;5051766;28;20044;-59
2023/10/16 03:22:04;;;;;;;15.43;5.57;;;3.60;99.90;;;;;;5058564;28;20032;-59
2023/10/16 03:24:29;;;;;;;8.13;5.18;;;3.60;99.90;;;;;;5054170;28;20021;-61
2023/10/16 03:26:57;;;;;;;9.75;5.50;;;3.60;99.90;;;;;;5055286;28;20052;-59
2023/10/16 03:29:23;;;;;;;10.73;5.43;;;3.60;99.90;;;;;;5067355;28;20387;-61
2023/10/16 03:31:49;;;;;;;9.63;5.47;;;3.60;99.90;;;;;;5049980;28;20033;-60
2023/10/16 03:34:14;;;;;;;17.58;5.80;;;3.60;99.90;;;;;;5052225;28;20021;-59
2023/10/16 03:36:41;;;;;;;10.90;5.53;;;3.60;99.90;;;;;;5056053;28;20462;-58
2023/10/16 03:39:10;;;;;;;12.40;5.68;;;3.50;99.90;;;;;;5051939;28;20032;-58
2023/10/16 03:41:39;;;;;;;11.75;6.07;;;3.50;99.90;;;;;;5053686;28;20028;-56
2023/10/16 03:44:13;;;;;;;6.47;4.45;;;3.60;99.90;;;;;;5054992;28;20104;-60
2023/10/16 03:46:39;;;;;;;10.85;5.60;;;3.60;99.90;;;;;;5055852;28;20474;-59
2023/10/16 03:49:06;;;;;;;20.85;5.93;;;3.50;99.90;;;;;;5052209;28;20028;-60
2023/10/16 03:51:32;;;;;;;12.65;6.15;;;3.50;99.90;;;;;;5054112;28;20028;-61
2023/10/16 03:53:57;;;;;;;13.00;5.88;;;3.50;99.90;;;;;;5054304;28;20415;-57
2023/10/16 03:56:24;;;;;;;11.23;5.57;;;3.50;99.90;;;;;;5054511;28;20025;-59
2023/10/16 03:58:53;;;;;;;11.75;4.50;;;3.40;99.90;;;;;;5054871;28;20032;-60
2023/10/16 04:01:28;;;;;;;13.48;5.78;;;3.40;99.90;;;;;;5050445;28;20025;-59
2023/10/16 04:03:57;;;;;;;13.05;5.60;;;3.50;99.90;;;;;;5055524;28;20025;-60
2023/10/16 04:06:24;;;;;;;12.35;5.78;;;3.50;99.90;;;;;;5061276;28;20017;-55
2023/10/16 04:08:52;;;;;;;12.60;5.30;;;3.40;99.90;;;;;;5052867;28;20063;-57
2023/10/16 04:11:21;;;;;;;19.00;5.53;;;3.40;99.90;;;;;;5061104;28;20025;-60
2023/10/16 04:13:50;;;;;;;12.32;5.63;;;3.40;99.90;;;;;;5058399;28;20033;-59
2023/10/16 04:21:40;;;;;;;14.98;6.53;;;3.30;99.90;;;;;;5058730;28;20108;-60
2023/10/16 04:24:30;;;;;;;15.93;6.25;;;3.30;99.90;;;;;;5065049;28;20022;-60
2023/10/16 04:29:25;;;;;;;15.13;6.20;;;3.20;99.90;;;;;;5054376;28;20047;-59
2023/10/16 04:31:55;;;;;;;17.45;6.97;;;3.20;99.90;;;;;;5057097;28;20021;-56
2023/10/16 04:34:31;;;;;;;13.80;5.97;;;3.20;99.90;;;;;;5058225;28;20016;-61
2023/10/16 04:47:48;;;;;;;12.93;5.93;;;3.10;99.90;;;;;;5058655;28;20380;-58
2023/10/16 04:50:29;;;;;;;11.43;6.40;;;3.10;99.90;;;;;;5055115;28;20028;-58
2023/10/16 05:04:48;;;;;;;10.25;5.80;;;3.10;99.90;;;;;;5059372;28;20032;-56
2023/10/16 05:13:55;;;;;;;8.25;5.03;;;3.00;99.90;;;;;;5050704;28;20360;-58
2023/10/16 05:16:30;;;;;;;14.57;6.25;;;2.90;99.90;;;;;;5056946;28;20040;-58
2023/10/16 05:19:03;;;;;;;13.73;6.30;;;3.00;99.90;;;;;;5050288;28;20514;-57
2023/10/16 06:16:17;;;;;;;37.72;11.30;;;4.00;99.90;;;;;;5065888;28;20407;-60
2023/10/16 06:18:47;;;;;;;30.08;12.00;;;4.00;99.90;;;;;;5064170;28;20577;-60
2023/10/16 06:21:17;;;;;;;24.30;10.95;;;4.00;99.90;;;;;;5066071;28;20080;-61
2023/10/16 06:23:48;;;;;;;39.50;12.32;;;4.00;99.90;;;;;;5062110;28;20021;-60
2023/10/16 06:26:14;;;;;;;38.28;13.13;;;4.00;99.90;;;;;;5061033;28;20132;-61
2023/10/16 06:28:47;;;;;;;26.83;11.85;;;4.00;99.90;;;;;;5059326;28;20159;-60
2023/10/16 06:31:22;;;;;;;29.00;12.40;;;4.10;99.90;;;;;;5066497;28;20017;-61
2023/10/16 06:33:57;;;;;;;38.50;11.65;;;4.20;99.90;;;;;;5068926;28;20034;-61
2023/10/16 06:36:28;;;;;;;35.33;11.98;;;4.30;99.90;;;;;;5066994;28;20035;-61
2023/10/16 06:38:54;;;;;;;30.90;12.63;;;4.40;99.90;;;;;;5070020;28;20011;-55
2023/10/16 06:41:22;;;;;;;36.35;13.90;;;4.40;99.90;;;;;;5065049;28;20035;-57
2023/10/16 06:43:49;;;;;;;31.52;12.43;;;4.40;99.90;;;;;;5067096;28;20013;-56
2023/10/16 06:46:23;;;;;;;28.70;11.93;;;4.30;99.90;;;;;;5064209;28;20033;-61
2023/10/16 06:48:50;;;;;;;41.85;13.23;;;4.30;99.90;;;;;;5067929;28;20019;-61
2023/10/16 06:51:16;;;;;;;32.17;12.38;;;4.30;99.90;;;;;;5065677;28;20123;-62
2023/10/16 06:53:43;;;;;;;24.58;12.25;;;4.40;99.90;;;;;;5066590;28;20628;-59
2023/10/16 06:56:08;;;;;;;38.17;13.32;;;4.30;99.90;;;;;;5069394;28;20051;-62
2023/10/16 06:58:34;;;;;;;27.17;11.73;;;4.30;99.90;;;;;;5066436;28;20502;-59
2023/10/16 07:01:01;;;;;;;39.63;12.95;;;4.40;99.90;;;;;;5066946;28;20101;-61
2023/10/16 07:03:28;;;;;;;31.73;12.43;;;4.50;99.90;;;;;;5069976;28;20033;-62
2023/10/16 07:05:54;;;;;;;29.55;13.45;;;4.50;99.90;;;;;;5066157;28;20039;-61
2023/10/16 07:08:22;;;;;;;31.15;13.30;;;4.50;99.90;;;;;;5072739;28;20099;-59
2023/10/16 07:10:50;;;;;;;29.70;13.32;;;4.50;99.90;;;;;;5067838;28;20052;-59
2023/10/16 07:13:29;;;;;;;29.55;14.23;;;4.60;99.90;;;;;;5066530;28;21227;-60
2023/10/16 07:16:01;;;;;;;34.00;13.88;;;4.70;99.90;;;;;;5062402;28;20427;-59
2023/10/16 07:18:28;;;;;;;27.88;14.18;;;4.80;99.90;;;;;;5062235;28;20028;-60
2023/10/16 07:23:37;;;;;;;33.65;14.43;;;4.80;99.90;;;;;;5067800;28;20541;-61
2023/10/16 07:26:03;;;;;;;36.22;15.52;;;4.80;99.90;;;;;;5066399;28;20085;-58
2023/10/16 07:28:31;;;;;;;32.17;15.50;;;4.80;99.90;;;;;;5066695;28;20037;-59
2023/10/16 07:30:59;;;;;;;34.05;15.30;;;4.90;99.90;;;;;;5065672;28;20032;-59
2023/10/16 07:33:25;;;;;;;38.80;16.20;;;5.00;99.90;;;;;;5067078;28;20033;-61
2023/10/16 07:35:52;;;;;;;35.78;15.43;;;4.90;99.90;;;;;;5067803;28;20058;-62
2023/10/16 07:38:20;;;;;;;92.43;15.90;;;4.90;99.90;;;;;;5068609;28;20020;-61
2023/10/16 07:40:54;;;;;;;34.83;13.60;;;5.00;99.90;;;;;;5065382;28;20020;-59
2023/10/16 07:43:27;;;;;;;32.78;14.98;;;5.00;99.90;;;;;;5066760;28;20027;-58
2023/10/16 07:48:51;;;;;;;35.58;15.82;;;5.20;99.90;;;;;;5066774;28;20024;-56
2023/10/16 07:51:20;;;;;;;38.63;14.82;;;5.20;99.90;;;;;;5066227;28;20028;-59
2023/10/16 07:53:49;;;;;;;36.00;16.00;;;5.30;99.90;;;;;;5066550;28;20083;-60
2023/10/16 07:59:09;;;;;;;34.63;15.43;;;5.30;99.90;;;;;;5064977;28;20025;-61
2023/10/16 08:04:06;;;;;;;38.45;16.17;;;5.30;99.90;;;;;;5065537;28;20450;-61
2023/10/16 08:06:33;;;;;;;36.92;16.08;;;5.40;99.90;;;;;;5067328;28;20043;-58
2023/10/16 08:11:43;;;;;;;35.28;17.55;;;5.40;99.90;;;;;;5064785;28;20618;-62
2023/10/16 08:14:13;;;;;;;41.67;17.08;;;5.40;99.90;;;;;;5067515;28;20036;-60
2023/10/16 08:16:38;;;;;;;40.80;17.33;;;5.50;99.90;;;;;;5066622;28;20024;-59
2023/10/16 08:19:14;;;;;;;42.75;19.10;;;5.60;99.90;;;;;;5068275;28;20105;-58
2023/10/16 08:21:42;;;;;;;42.33;17.25;;;5.70;99.90;;;;;;5064270;28;20036;-61
2023/10/16 08:24:08;;;;;;;49.35;19.77;;;5.60;99.90;;;;;;5067012;28;20024;-60
2023/10/16 08:26:42;;;;;;;56.03;20.23;;;5.60;99.90;;;;;;5068068;28;20024;-63
2023/10/16 08:29:11;;;;;;;53.00;21.00;;;5.60;99.90;;;;;;5067753;28;20016;-54
2023/10/16 08:31:44;;;;;;;61.10;21.98;;;5.70;99.90;;;;;;5065838;28;20040;-59
2023/10/16 08:34:19;;;;;;;56.90;21.90;;;5.80;99.90;;;;;;5061936;28;20025;-60
2023/10/16 08:36:52;;;;;;;54.30;21.00;;;5.90;99.90;;;;;;5065529;28;20577;-58
2023/10/16 08:39:19;;;;;;;52.08;22.30;;;6.00;99.90;;;;;;5066577;28;20070;-61
2023/10/16 08:41:51;;;;;;;52.70;22.42;;;6.10;99.90;;;;;;5068720;28;20025;-59
2023/10/16 08:44:18;;;;;;;51.50;21.90;;;6.20;99.90;;;;;;5067152;28;20072;-59
2023/10/16 08:47:24;;;;;;;64.05;23.63;;;6.40;99.90;;;;;;5064766;28;20025;-59
2023/10/16 08:49:39;;;;;;;65.47;22.52;;;6.30;99.90;;;;;;5062192;28;20123;-58
2023/10/16 08:52:10;;;;;;;63.45;25.30;;;6.40;99.90;;;;;;5065464;28;20099;-60
2023/10/16 08:57:33;;;;;;;63.42;25.48;;;6.40;99.90;;;;;;5063889;28;20040;-62
2023/10/16 08:59:59;;;;;;;;;;;6.50;99.90;;;;;;5068921;28;20009;-57
2023/10/16 09:02:27;;;;;;;50.70;22.50;;;6.60;99.90;;;;;;5062644;28;19904;-62
2023/10/16 09:04:55;;;;;;;54.75;23.25;;;6.80;99.90;;;;;;5065110;28;20060;-61
2023/10/16 09:07:23;;;;;;;42.60;21.88;;;6.90;99.90;;;;;;5065157;28;20028;-54
2023/10/16 09:09:49;;;;;;;42.90;19.85;;;7.00;99.90;;;;;;5062259;28;20031;-61
2023/10/16 09:12:24;;;;;;;46.15;21.88;;;7.10;99.90;;;;;;5063893;28;20021;-56
2023/10/16 09:14:50;;;;;;;43.53;23.08;;;7.20;99.90;;;;;;5067414;28;20079;-63
2023/10/16 09:17:19;;;;;;;52.97;24.90;;;7.10;99.90;;;;;;5062638;28;20047;-61
2023/10/16 09:19:48;;;;;;;45.55;23.40;;;7.20;99.90;;;;;;5064057;28;20527;-62
2023/10/16 09:22:15;;;;;;;42.63;22.52;;;7.30;99.90;;;;;;5065935;28;20043;-62
2023/10/16 09:24:45;;;;;;;41.20;20.38;;;7.40;99.90;;;;;;5065718;28;20033;-62
2023/10/16 09:27:17;;;;;;;42.85;23.42;;;7.50;99.90;;;;;;5060678;28;20047;-63
2023/10/16 09:29:54;;;;;;;31.05;19.52;;;7.60;99.90;;;;;;5065693;28;20025;-60
2023/10/16 09:32:34;;;;;;;41.42;20.13;;;7.70;99.90;;;;;;5063694;28;20478;-61
2023/10/16 09:35:05;;;;;;;37.60;19.48;;;7.80;99.90;;;;;;5066643;28;20029;-62
2023/10/16 09:37:37;;;;;;;32.88;17.85;;;7.90;99.90;;;;;;5066028;28;20019;-61
2023/10/16 09:43:05;;;;;;;37.35;20.30;;;8.20;99.90;;;;;;5063594;28;20036;-63
2023/10/16 09:45:33;;;;;;;33.15;18.67;;;8.30;99.90;;;;;;5064036;28;20425;-61
2023/10/16 09:48:07;;;;;;;33.95;16.90;;;8.40;99.90;;;;;;5063596;28;20085;-60
2023/10/16 09:50:33;;;;;;;;;;;8.60;99.90;;;;;;5064580;28;20107;-60
2023/10/16 09:53:01;;;;;;;28.85;14.48;;;8.70;99.90;;;;;;5063629;28;20007;-60
2023/10/16 09:55:30;;;;;;;27.58;15.75;;;8.80;99.90;;;;;;5063661;28;20020;-59
2023/10/16 09:57:59;;;;;;;26.42;14.30;;;9.00;99.90;;;;;;5065210;28;20021;-60
2023/10/16 10:00:29;;;;;;;32.10;15.02;;;9.00;99.90;;;;;;5063934;28;20029;-59
2023/10/16 10:03:05;;;;;;;19.83;12.68;;;9.10;99.90;;;;;;5066258;28;20058;-58
2023/10/16 10:08:27;;;;;;;29.95;12.48;;;9.30;99.90;;;;;;5066603;28;20398;-60
2023/10/16 10:11:26;;;;;;;24.65;11.77;;;9.30;99.90;;;;;;5066710;28;20082;-58
2023/10/16 10:14:11;;;;;;;23.00;11.23;;;9.30;99.90;;;;;;5061697;28;20016;-59
2023/10/16 10:16:45;;;;;;;;;;;9.50;99.90;;;;;;5055982;28;20039;-59
2023/10/16 10:19:31;;;;;;;19.60;9.60;;;9.70;99.90;;;;;;5062076;28;19916;-61
2023/10/16 10:22:22;;;;;;;23.52;9.60;;;9.80;99.90;;;;;;5066193;28;20025;-62
2023/10/16 10:25:07;;;;;;;21.10;9.45;;;9.80;99.90;;;;;;5065108;28;20062;-58
2023/10/16 10:27:34;;;;;;;17.25;8.80;;;;;;;;;;5062050;28;20344;-53
2023/10/16 10:30:02;;;;;;;22.98;8.63;;;;;;;;;;5061457;28;20675;-60
2023/10/16 10:32:28;;;;;;;14.80;7.55;;;;;;;;;;5061939;28;20050;-58
2023/10/16 10:35:22;;;;;;;17.33;8.95;;;9.80;99.90;;;;;;5059914;28;20028;-59
2023/10/16 10:37:48;;;;;;;17.17;7.10;;;10.20;99.90;;;;;;5061216;28;20020;-58
2023/10/16 10:40:24;;;;;;;13.77;8.18;;;10.20;99.90;;;;;;5060628;28;20047;-59
2023/10/16 10:42:53;;;;;;;19.05;8.95;;;10.40;99.90;;;;;;5064352;28;20012;-60
2023/10/16 10:45:33;;;;;;;28.40;8.68;;;10.60;99.90;;;;;;5064061;28;20035;-59
2023/10/16 10:48:04;;;;;;;17.42;8.98;;;10.80;99.90;;;;;;5065033;28;20482;-55
2023/10/16 10:50:30;;;;;;;19.92;9.02;;;10.90;99.90;;;;;;5062407;28;20033;-61
2023/10/16 10:52:56;;;;;;;16.67;8.93;;;11.00;99.90;;;;;;5061987;28;20023;-61
2023/10/16 10:55:22;;;;;;;22.10;7.93;;;11.10;99.90;;;;;;5064089;28;20020;-59
2023/10/16 10:57:58;;;;;;;23.73;8.15;;;10.90;99.90;;;;;;5066537;28;20032;-62
2023/10/16 11:05:30;;;;;;;15.82;7.93;;;11.30;99.90;;;;;;5063104;28;20028;-62
2023/10/16 11:10:41;;;;;;;15.18;8.32;;;11.30;99.90;;;;;;5065052;28;21850;-63
2023/10/16 11:13:10;;;;;;;16.63;8.23;;;11.60;99.90;;;;;;5063324;28;20020;-61
2023/10/16 11:15:37;;;;;;;18.42;8.55;;;11.50;99.90;;;;;;5062557;28;20564;-61
2023/10/16 11:18:12;;;;;;;17.58;8.55;;;11.80;99.90;;;;;;5060566;28;20025;-57
2023/10/16 11:20:39;;;;;;;19.98;8.95;;;11.70;99.90;;;;;;5059460;28;20063;-63
2023/10/16 11:23:12;;;;;;;26.92;10.93;;;11.70;99.90;;;;;;5064727;28;20137;-63
2023/10/16 11:25:46;;;;;;;23.38;10.25;;;11.70;99.90;;;;;;5063712;28;20025;-61
2023/10/16 11:28:21;;;;;;;16.07;7.97;;;11.80;99.90;;;;;;5065348;28;20025;-62
2023/10/16 11:30:56;;;;;;;28.85;10.98;;;11.80;99.90;;;;;;5063724;28;20027;-61
2023/10/16 11:33:46;;;;;;;23.08;11.52;;;12.00;99.90;;;;;;5062461;28;20029;-59
2023/10/16 11:36:13;;;;;;;19.33;10.48;;;12.30;99.90;;;;;;5061709;28;20032;-61
2023/10/16 11:38:40;;;;;;;26.73;11.63;;;12.40;99.90;;;;;;5064837;28;20048;-61
2023/10/16 11:41:11;;;;;;;24.35;10.60;;;;;;;;;;5066131;28;20020;-62
2023/10/16 11:43:40;;;;;;;24.90;10.73;;;12.40;99.90;;;;;;5065786;28;20032;-61
2023/10/16 11:46:28;;;;;;;28.20;12.75;;;12.70;99.90;;;;;;5061273;28;20016;-61
2023/10/16 11:48:56;;;;;;;25.48;12.95;;;12.70;99.90;;;;;;5063877;28;20087;-61
2023/10/16 11:51:25;;;;;;;26.42;12.18;;;12.90;99.90;;;;;;5059852;28;20035;-61
2023/10/16 11:54:02;;;;;;;31.60;12.57;;;12.90;99.90;;;;;;5063484;28;20023;-59
2023/10/16 11:56:34;;;;;;;29.48;12.88;;;13.20;99.90;;;;;;5060693;28;20021;-62
2023/10/16 11:59:00;;;;;;;20.50;10.95;;;13.20;99.90;;;;;;5064858;28;20644;-60
2023/10/16 12:01:27;;;;;;;30.55;13.10;;;13.00;99.90;;;;;;5063563;28;20605;-61
2023/10/16 12:03:53;;;;;;;17.00;10.18;;;13.30;99.90;;;;;;5066776;28;20032;-62
2023/10/16 12:06:18;;;;;;;23.60;10.60;;;13.60;99.90;;;;;;5065573;28;20024;-61
2023/10/16 12:08:44;;;;;;;24.00;11.02;;;13.90;99.90;;;;;;5063498;28;20055;-62
2023/10/16 12:11:14;;;;;;;21.73;11.45;;;13.60;99.90;;;;;;5064733;28;20021;-58
2023/10/16 12:13:40;;;;;;;26.02;11.68;;;13.50;99.90;;;;;;5059501;28;20028;-58
2023/10/16 12:16:06;;;;;;;27.30;11.65;;;13.40;99.90;;;;;;5059483;28;20040;-57
2023/10/16 12:18:31;;;;;;;24.10;11.45;;;13.30;99.90;;;;;;5062135;28;20033;-61
2023/10/16 12:21:06;;;;;;;22.85;10.15;;;13.30;99.90;;;;;;5066869;28;20021;-61
2023/10/16 12:23:38;;;;;;;24.13;11.25;;;13.10;99.90;;;;;;5061830;28;20085;-63
2023/10/16 12:26:05;;;;;;;16.60;9.50;;;13.40;99.90;;;;;;5065582;28;20062;-63
2023/10/16 12:28:34;;;;;;;19.80;9.40;;;13.70;99.90;;;;;;5061982;28;20032;-62
2023/10/16 12:31:02;;;;;;;20.33;9.43;;;13.20;99.90;;;;;;5062337;28;20032;-61
2023/10/16 12:33:30;;;;;;;24.80;10.60;;;13.00;99.90;;;;;;5060668;28;20029;-63
2023/10/16 12:35:56;;;;;;;23.17;9.95;;;12.80;99.90;;;;;;5066082;28;20020;-63
2023/10/16 12:38:25;;;;;;;22.33;9.60;;;13.20;99.90;;;;;;5067158;28;20023;-60
2023/10/16 12:40:55;;;;;;;23.52;10.50;;;13.30;99.90;;;;;;5065877;28;20482;-63
2023/10/16 12:43:21;;;;;;;16.02;8.35;;;13.00;99.90;;;;;;5060996;28;20043;-61
2023/10/16 12:45:50;;;;;;;18.52;9.68;;;13.10;99.90;;;;;;5063527;28;20016;-63
2023/10/16 12:48:17;;;;;;;22.17;8.35;;;13.20;99.90;;;;;;5062665;28;20021;-61
2023/10/16 12:50:47;;;;;;;19.27;9.00;;;13.30;99.90;;;;;;5066592;28;20536;-61
2023/10/16 12:53:13;;;;;;;19.35;8.38;;;13.10;99.90;;;;;;5065934;28;20036;-59
2023/10/16 12:55:40;;;;;;;15.68;7.70;;;12.80;99.90;;;;;;5062938;28;20029;-58
2023/10/16 12:58:10;;;;;;;13.75;7.47;;;13.00;99.90;;;;;;5062764;28;20043;-60
2023/10/16 13:00:39;;;;;;;17.95;7.90;;;13.00;99.90;;;;;;5058061;28;20037;-62
2023/10/16 13:03:13;;;;;;;13.02;7.50;;;12.90;99.90;;;;;;5060287;28;20449;-58
2023/10/16 13:05:40;;;;;;;20.77;9.10;;;13.00;99.90;;;;;;5058374;28;20024;-60
2023/10/16 13:08:07;;;;;;;18.52;9.23;;;12.80;99.90;;;;;;5060926;28;20024;-58
2023/10/16 13:10:34;;;;;;;19.50;8.30;;;13.00;99.90;;;;;;5060879;28;20109;-60
2023/10/16 13:13:00;;;;;;;22.60;7.82;;;13.00;99.90;;;;;;5063707;28;20418;-57
2023/10/16 13:15:29;;;;;;;14.77;6.30;;;12.80;99.90;;;;;;5060064;28;20035;-60
2023/10/16 13:17:55;;;;;;;14.95;6.00;;;12.90;99.90;;;;;;5063401;28;20090;-62
2023/10/16 13:20:26;;;;;;;16.40;6.97;;;12.90;99.90;;;;;;5059071;28;20633;-59
2023/10/16 13:22:55;;;;;;;17.35;6.15;;;12.90;99.90;;;;;;5061720;28;20482;-58
2023/10/16 13:25:25;;;;;;;14.65;5.95;;;13.00;99.90;;;;;;5056910;28;20154;-57
2023/10/16 13:27:55;;;;;;;15.27;4.95;;;12.80;99.90;;;;;;5056588;28;20037;-60
2023/10/16 13:30:25;;;;;;;11.07;4.75;;;13.00;99.90;;;;;;5058510;28;20478;-56
2023/10/16 13:32:51;;;;;;;11.80;4.97;;;13.20;99.90;;;;;;5057551;28;20029;-58
2023/10/16 13:35:18;;;;;;;20.63;6.00;;;12.90;99.90;;;;;;5061363;28;20402;-55
2023/10/16 13:37:45;;;;;;;12.60;5.97;;;12.80;99.90;;;;;;5061882;28;20374;-58
2023/10/16 13:40:21;;;;;;;15.75;5.75;;;12.90;99.90;;;;;;5060599;28;20031;-58
2023/10/16 13:42:56;;;;;;;11.88;5.00;;;13.00;99.90;;;;;;5061822;28;20378;-59
2023/10/16 13:45:23;;;;;;;5.00;3.05;;;12.50;99.90;;;;;;5056520;28;20163;-54
2023/10/16 13:47:50;;;;;;;9.95;3.30;;;12.50;99.90;;;;;;5061027;28;20104;-57
2023/10/16 13:50:24;;;;;;;10.32;4.13;;;12.60;99.90;;;;;;5062804;28;20016;-61
2023/10/16 13:52:51;;;;;;;9.40;4.05;;;12.60;99.90;;;;;;5061822;28;20029;-59
2023/10/16 13:55:20;;;;;;;12.40;4.60;;;12.50;99.90;;;;;;5064169;28;20029;-60
2023/10/16 13:57:47;;;;;;;8.23;3.38;;;12.60;99.90;;;;;;5059313;28;20409;-59
2023/10/16 14:00:29;;;;;;;9.40;3.55;;;12.50;99.90;;;;;;5062753;28;20030;-60
2023/10/16 14:05:47;;;;;;;9.07;4.10;;;12.30;99.90;;;;;;5064049;28;20052;-61
2023/10/16 14:08:36;;;;;;;8.25;4.35;;;12.40;99.90;;;;;;5059843;28;20667;-60
2023/10/16 14:11:02;;;;;;;12.63;5.05;;;12.50;99.90;;;;;;5058811;28;20037;-60
2023/10/16 14:13:28;;;;;;;4.97;1.90;;;12.40;99.90;;;;;;5058090;28;20059;-60
2023/10/16 14:16:09;;;;;;;9.05;2.65;;;12.60;99.90;;;;;;5068140;28;20031;-56
2023/10/16 14:18:35;;;;;;;5.35;2.08;;;12.50;99.90;;;;;;5064457;28;20036;-61
2023/10/16 14:21:08;;;;;;;4.18;2.08;;;12.60;99.90;;;;;;5060605;28;20103;-59
2023/10/16 14:23:34;;;;;;;9.68;2.30;;;12.60;99.90;;;;;;5056797;28;20119;-61
2023/10/16 14:26:00;;;;;;;10.50;2.78;;;12.60;99.90;;;;;;5063573;28;20107;-59
2023/10/16 14:28:28;;;;;;;5.25;2.45;;;12.70;99.90;;;;;;5063626;28;20112;-62
2023/10/16 14:30:56;;;;;;;6.13;2.33;;;12.80;99.90;;;;;;5064258;28;20471;-60
2023/10/16 14:33:25;;;;;;;7.03;2.17;;;12.80;99.90;;;;;;5067176;28;20025;-61
2023/10/16 14:35:51;;;;;;;8.20;2.35;;;12.70;99.90;;;;;;5065376;28;20032;-62
2023/10/16 14:38:19;;;;;;;8.07;3.20;;;12.70;99.90;;;;;;5065106;28;20081;-59
2023/10/16 14:40:45;;;;;;;9.65;3.15;;;12.40;99.90;;;;;;5064062;28;20474;-62
2023/10/16 14:43:11;;;;;;;6.70;2.80;;;12.50;99.90;;;;;;5062472;28;20140;-62
2023/10/16 14:45:37;;;;;;;4.57;2.00;;;12.40;99.90;;;;;;5067562;28;20096;-61
2023/10/16 14:48:03;;;;;;;7.47;2.30;;;12.50;99.90;;;;;;5070236;28;20025;-60
2023/10/16 14:50:32;;;;;;;11.48;2.13;;;12.50;99.90;;;;;;5067235;28;20024;-60
2023/10/16 14:53:00;;;;;;;6.90;2.10;;;12.60;99.90;;;;;;5066084;28;20035;-62
2023/10/16 14:55:27;;;;;;;11.77;2.53;;;12.60;99.90;;;;;;5063406;28;20354;-60
2023/10/16 14:57:56;;;;;;;3.70;2.33;;;12.50;99.90;;;;;;5067067;28;20017;-57
2023/10/16 15:00:31;;;;;;;5.95;2.70;;;12.50;99.90;;;;;;5073232;28;20027;-62